Juan Gualberto Gomez International Airport
MUVR : now visible

Airfield :











YOU CAN JOIN US ON...

 
LOGIN :

Register | Disclaimer

   EN    FR    IT 

 









Legend :    VFR   Marginal VFR   IFR   Intensive IFR   Very Intensive IFR
Visi :
Ceiling :
>= 8 km
>= 3000ft
5 to 8 km
1000 to 3000 ft
1500m to 5 km
500 to 1000 ft
800 to 1500m
200 to 500 ft
< 800m
< 200 ft
Symbols :   Thunderstorms  Fog  Heavy snow  Heavy precipitations  Wind > 20 kt






- Airport Elevation : 210 ft
- IATA code : VRA


MUVR - Juan Gualberto Gomez International

CURRENT METAR :
  • 141950Z 03010KT 9000 SCT020 31/26 Q1014

EXPIRED METARs :
  • 141850Z 01008KT 9000 SCT020 31/26 Q1014
  • 141750Z 03011KT 9000 SCT020 32/26 Q1015

TAF MUVR
Valid from the 14 at 18:00 until the 15 at 18:00 UTC


141700Z 1418/1518 07008KT 9000 SCT020
TEMPO 1418/1424 VRB10KT 5000 TSRA FEW018CB BKN020
BECMG 1501/1503 VRB03KT
BECMG 1515/1517 06008KT
MUFH FIR / North America



MET'MAP, your aeronautical weather chart ! - Copyright ORBIFLY December 2007 - Disclaimer

ORBIFLY MET'MAP TEAM :

Programming & Development : Alexandra Zaïnal
Concept & original design : Baudouin d'Aumeries
Assistance for programming : Marc-Olivier Méhu
Technical & hardware support : Manuel Goepfert

Contact : metmap@orbifly.com




SOURCES & CREDITS :

   NOAA       Earth
Advisory